Aviation Digital Data Service (ADDS)

Output produced by TAFs form (1633 UTC 23 November 2017)
found at http://www.aviationweather.gov/adds/tafs/
 
METAR text: HECA 231630Z 36010KT CAVOK 19/11 Q1020 NOSIG
Conditions at: HECA (CAIRO INTL AIRPO, EG) observed 1630 UTC 23 November 2017
Temperature: 19.0°C (66°F)
Dewpoint: 11.0°C (52°F) [RH = 60%]
Pressure (altimeter): 30.12 inches Hg (1020.0 mb)
Winds: from the N (360 degrees) at 12 MPH (10 knots; 5.2 m/s)
Visibility: 6 or more miles (10+ km)
Ceiling: ceiling and visibility are OK
Clouds: unknown
Weather: no significant weather observed at this time

Forecast for: HECA (CAIRO INTL AIRPO, EG)
Text: TAF HECA 231100Z 2312/2418 33009KT 9999 SCT025
Forecast period: 1200 UTC 23 November 2017 to 1800 UTC 24 November 2017
Forecast type: FROM: standard forecast or significant change
Winds: from the NNW (330 degrees) at 10 MPH (9 knots; 4.7 m/s)
Visibility: 6 or more miles (10+ km)
Clouds: scattered clouds at 2500 feet AGL
Weather: no significant weather forecast for this period
Text: TEMPO 2400/2406 VRB03KT 4000 HZ
Forecast period: 0000 to 0600 UTC 24 November 2017
Forecast type: TEMPORARY: The following changes expected for less than half the time period
Winds: variable direction winds at 3 MPH (3 knots; 1.6 m/s)
Visibility: 2.49 miles (4.01 km)
Weather: HZ  (haze)